Decoded Metar for SADF (SAN FERNANDO in ARGENTINA) (IATA:N/A) | Meteo·Mobile Aviation Weather
aviador You're here:

SADF Decoded Metar

SAN FERNANDO in ARGENTINA
Report Time2019-03-20 00:00:00
UTC Time2019-03-20 00:46:11
Flight Rules vfr VFR
Wind160° at 06 kt
W.Decomp.*RWY 23: 2.8 kt HW 5.3 kt LCW
W.Rank160° ranks 13
Current wind is below 160° avg. (6.4)
Visibility9999 m
Phenomena:N/A
Clouds:N/A
Expected CloudBase > 2,000 ft AGL from Temp-Dew spread
CeilingNone
Temp16°C (ISA +1)
Dew Point11°C (72% RH)
AAT14.2°C
QNH1020 hPa
Density Alt75 ft
Elevation13 ft
Report Wrong Elevation
Raw Report
METAR SADF 200000Z 16006KT CAVOK 16/11 Q1020=

Extra information for SADF:More info

Metar Taf Metar & Taf Last 4 Metars F.Rules Stats Wind Profile Meteogram Temp Stats Airport Information Weather charts Add Link Nearby VenuesMetar ALERT Operation Metar Decoded Social comments